Terminal Aerodrome Forecast
Issued by NWS Kansas City/Pleasant Hill, MO

Home | Current Version | Previous Version | Text Only | Print | Product List | Glossary On
Versions: 1 2 3 4 5 6 7 8 9 10 11 12 13 14 15 16 17 18 19 20 21 22 23 24
492
FTUS43 KEAX 181340 AAB
TAFMCI
TAF AMD
KMCI 181340Z 1814/1912 18007KT 3SM BR SCT001
     FM181500 19008KT P6SM FEW035
     FM190600 15005KT 5SM BR OVC020=

USA.gov is the U.S. government's official web portal to all federal, state and local government web resources and services.